GVAC/SID METAR and TAF weather

Enter ICAO airport designator
Station Type Date Time Source
GVAC METAR 2020/09/20 11:00 UTC NOAA

GVAC 201100Z 09017KT 9999 BKN012 BKN016 26/24 Q1015 NOSIG


Station Type Date Time Source
GVAC Decoded METAR 2020/09/20 11:00 UTC NOAA

Sal, Cape Verde (GVAC) 16-44N 022-57W 55M
Sep 20, 2020 - 07:00 AM EDT / 2020.09.20 1100 UTC
Wind: from the E (090 degrees) at 20 MPH (17 KT):0
Visibility: greater than 7 mile(s):0
Sky conditions: mostly cloudy
Temperature: 78 F (26 C)
Dew Point: 75 F (24 C)
Relative Humidity: 88%
Pressure (altimeter): 29.97 in. Hg (1015 hPa)
ob: GVAC 201100Z 09017KT 9999 BKN012 BKN016 26/24 Q1015 NOSIG
cycle: 11

Station Type Date Time Source
GVAC TAF 2020/09/20 12:58 UTC NOAA

TAF GVAC 201100Z 2012/2118 06012KT 9999 BKN014
TEMPO 2012/2018 12008KT 5000 RADZ BKN012 BKN016 PROB30
TEMPO 2020/2103 VRB04KT 8000 -RA SCT016

Example: see airport list